Time;durP1;ratioP1;P1;durP2;ratioP2;P2;SDS_P1;SDS_P2;PMS_P1;PMS_P2;Temp;Humidity;BMP_temperature;BMP_pressure;BME280_temperature;BME280_humidity;BME280_pressure;Samples;Min_cycle;Max_cycle;Signal;HPM_P1;HPM_P2
2022/01/22 00:01:43;;;;;;;14.20;6.78;;;;;;;;;;5011917;28;20056;-85
2022/01/22 00:04:09;;;;;;;13.13;6.38;;;;;;;;;;4992152;28;20022;-85
2022/01/22 00:06:35;;;;;;;16.75;8.82;;;;;;;;;;4995069;28;20030;-85
2022/01/22 00:09:01;;;;;;;15.25;7.47;;;;;;;;;;4995964;28;20083;-85
2022/01/22 00:11:34;;;;;;;15.35;8.00;;;;;;;;;;5015329;28;20076;-85
2022/01/22 00:16:45;;;;;;;7.25;3.97;;;;;;;;;;5013255;28;20053;-85
2022/01/22 00:19:11;;;;;;;11.43;6.18;;;;;;;;;;4994282;28;20029;-85
2022/01/22 00:21:37;;;;;;;12.90;6.30;;;;;;;;;;4994739;28;20041;-85
2022/01/22 00:24:05;;;;;;;15.05;7.85;;;;;;;;;;4994072;28;20026;-85
2022/01/22 00:26:31;;;;;;;14.27;6.30;;;;;;;;;;4994595;28;20026;-84
2022/01/22 00:28:57;;;;;;;13.60;6.78;;;;;;;;;;4995288;28;20453;-85
2022/01/22 00:31:23;;;;;;;9.52;4.22;;;;;;;;;;4994092;28;20034;-84
2022/01/22 00:33:49;;;;;;;8.93;4.45;;;;;;;;;;4994622;28;20450;-85
2022/01/22 00:36:15;;;;;;;8.00;4.13;;;;;;;;;;4993350;28;20113;-85
2022/01/22 00:38:41;;;;;;;12.07;6.15;;;;;;;;;;4992160;28;20498;-85
2022/01/22 00:41:07;;;;;;;12.20;6.65;;;;;;;;;;4994645;28;20421;-85
2022/01/22 00:43:33;;;;;;;16.05;7.57;;;;;;;;;;4993947;28;20427;-85
2022/01/22 00:45:59;;;;;;;13.07;6.85;;;;;;;;;;4992758;28;20085;-85
2022/01/22 00:48:25;;;;;;;8.35;4.97;;;;;;;;;;4991309;28;20038;-85
2022/01/22 00:50:55;;;;;;;6.82;3.72;;;;;;;;;;4993856;28;20038;-85
2022/01/22 00:53:21;;;;;;;15.02;7.55;;;;;;;;;;4991952;28;20061;-85
2022/01/22 00:55:47;;;;;;;12.15;5.53;;;;;;;;;;4991156;28;20030;-85
2022/01/22 00:58:13;;;;;;;10.55;4.88;;;;;;;;;;4976893;28;20031;-85
2022/01/22 01:00:39;;;;;;;10.05;5.15;;;;;;;;;;4991763;28;20030;-84
2022/01/22 01:03:05;;;;;;;10.20;4.63;;;;;;;;;;4998386;28;20030;-85
2022/01/22 01:05:31;;;;;;;12.60;5.38;;;;;;;;;;4992146;28;20121;-84
2022/01/22 01:07:57;;;;;;;9.63;5.07;;;;;;;;;;4993947;28;20112;-85
2022/01/22 01:10:23;;;;;;;9.25;4.07;;;;;;;;;;4990931;28;20032;-85
2022/01/22 01:12:50;;;;;;;12.13;4.15;;;;;;;;;;4991176;28;20030;-84
2022/01/22 01:15:38;;;;;;;10.98;4.28;;;;;;;;;;4993969;28;20034;-84
2022/01/22 01:32:10;;;;;;;11.25;5.47;;;;;;;;;;4994414;28;20406;-85
2022/01/22 01:34:39;;;;;;;8.20;4.60;;;;;;;;;;4996070;28;20037;-85
2022/01/22 01:37:05;;;;;;;12.70;5.22;;;;;;;;;;4988719;28;20014;-85
2022/01/22 01:39:34;;;;;;;9.85;4.88;;;;;;;;;;4991852;28;20124;-84
2022/01/22 01:42:05;;;;;;;9.68;4.60;;;;;;;;;;4994104;28;20471;-85
2022/01/22 01:44:32;;;;;;;12.80;4.97;;;;;;;;;;4996963;28;20041;-84
2022/01/22 01:46:59;;;;;;;9.30;4.40;;;;;;;;;;5008710;28;20117;-83
2022/01/22 01:49:26;;;;;;;9.00;3.87;;;;;;;;;;4976095;28;20027;-85
2022/01/22 01:51:54;;;;;;;11.57;6.20;;;;;;;;;;5009759;28;20038;-85
2022/01/22 01:54:37;;;;;;;10.63;5.15;;;;;;;;;;4996144;28;20165;-84
2022/01/22 01:59:50;;;;;;;11.80;4.60;;;;;;;;;;4996543;28;20079;-85
2022/01/22 02:02:16;;;;;;;12.52;4.47;;;;;;;;;;4995722;28;20026;-84
2022/01/22 02:04:42;;;;;;;8.88;3.83;;;;;;;;;;4993713;28;20026;-83
2022/01/22 02:07:09;;;;;;;10.77;4.60;;;;;;;;;;4981460;28;20019;-85
2022/01/22 02:09:36;;;;;;;10.93;4.30;;;;;;;;;;4993929;28;20093;-85
2022/01/22 02:12:38;;;;;;;7.78;2.78;;;;;;;;;;4995639;28;20041;-85
2022/01/22 02:25:58;;;;;;;5.53;2.95;;;;;;;;;;4982163;28;20051;-85
2022/01/22 02:28:24;;;;;;;8.60;3.90;;;;;;;;;;4999562;28;20495;-85
2022/01/22 02:30:56;;;;;;;11.75;4.20;;;;;;;;;;4994250;28;20026;-85
2022/01/22 02:33:36;;;;;;;9.10;4.13;;;;;;;;;;4989879;28;20050;-85
2022/01/22 02:36:19;;;;;;;11.93;4.25;;;;;;;;;;4994767;28;20392;-85
2022/01/22 02:38:53;;;;;;;11.07;4.07;;;;;;;;;;4993488;28;20046;-84
2022/01/22 02:41:22;;;;;;;9.73;4.38;;;;;;;;;;4999678;28;20038;-85
2022/01/22 02:43:48;;;;;;;8.75;3.90;;;;;;;;;;4994966;28;20064;-85
2022/01/22 02:46:18;;;;;;;7.82;2.97;;;;;;;;;;4994751;28;20034;-85
2022/01/22 02:48:44;;;;;;;9.68;5.28;;;;;;;;;;4994692;28;20441;-85
2022/01/22 02:51:11;;;;;;;10.93;5.22;;;;;;;;;;4993739;28;20035;-83
2022/01/22 02:53:37;;;;;;;11.35;4.95;;;;;;;;;;5000593;28;20386;-83
2022/01/22 02:56:03;;;;;;;10.55;4.63;;;;;;;;;;4996586;28;20041;-83
2022/01/22 02:58:29;;;;;;;12.23;4.20;;;;;;;;;;4992197;28;20030;-84
2022/01/22 03:00:55;;;;;;;9.68;4.03;;;;;;;;;;4983028;28;20399;-84
2022/01/22 03:03:21;;;;;;;9.82;4.82;;;;;;;;;;4988660;28;20031;-84
2022/01/22 03:05:47;;;;;;;9.82;4.60;;;;;;;;;;4992834;28;20041;-84
2022/01/22 03:08:14;;;;;;;7.85;3.75;;;;;;;;;;4991547;28;20030;-85
2022/01/22 03:10:44;;;;;;;9.15;3.10;;;;;;;;;;4994286;28;20030;-85
2022/01/22 03:18:12;;;;;;;7.50;3.63;;;;;;;;;;4994106;28;20071;-85
2022/01/22 03:21:01;;;;;;;9.18;4.40;;;;;;;;;;4992837;28;20129;-85
2022/01/22 03:29:03;;;;;;;9.07;3.63;;;;;;;;;;4995660;28;20080;-85
2022/01/22 03:31:30;;;;;;;8.80;3.67;;;;;;;;;;4992666;28;20081;-84
2022/01/22 03:33:56;;;;;;;8.75;3.45;;;;;;;;;;4988983;28;20040;-85
2022/01/22 03:36:23;;;;;;;8.70;3.60;;;;;;;;;;5000532;28;20034;-84
2022/01/22 03:38:49;;;;;;;10.18;3.97;;;;;;;;;;5008122;28;20099;-84
2022/01/22 03:41:15;;;;;;;8.07;3.10;;;;;;;;;;4995088;28;20096;-84
2022/01/22 03:43:43;;;;;;;7.53;3.60;;;;;;;;;;4996109;28;20560;-84
2022/01/22 03:46:09;;;;;;;9.63;3.42;;;;;;;;;;4990386;28;20030;-84
2022/01/22 03:48:35;;;;;;;6.75;3.03;;;;;;;;;;5011365;28;20176;-85
2022/01/22 03:51:01;;;;;;;6.43;3.05;;;;;;;;;;5015444;28;20033;-85
2022/01/22 03:53:27;;;;;;;7.93;3.53;;;;;;;;;;4996320;28;20100;-85
2022/01/22 03:56:04;;;;;;;10.32;3.17;;;;;;;;;;4997647;28;20057;-84
2022/01/22 03:58:48;;;;;;;8.07;3.17;;;;;;;;;;4991756;28;20025;-84
2022/01/22 04:03:58;;;;;;;6.47;3.17;;;;;;;;;;5014220;28;20041;-84
2022/01/22 04:07:00;;;;;;;6.30;3.20;;;;;;;;;;4996234;28;20042;-85
2022/01/22 04:09:17;;;;;;;8.40;3.47;;;;;;;;;;5019983;28;20057;-86
2022/01/22 04:11:45;;;;;;;6.82;2.70;;;;;;;;;;4995745;28;20632;-85
2022/01/22 04:14:22;;;;;;;6.97;3.05;;;;;;;;;;4997552;28;20028;-85
2022/01/22 04:17:07;;;;;;;7.80;3.33;;;;;;;;;;5014392;28;20018;-85
2022/01/22 04:25:04;;;;;;;8.38;3.40;;;;;;;;;;5031235;28;20099;-84
2022/01/22 04:27:30;;;;;;;7.43;3.30;;;;;;;;;;5006424;28;20041;-85
2022/01/22 04:29:57;;;;;;;7.60;3.55;;;;;;;;;;4998030;28;20034;-85
2022/01/22 04:32:28;;;;;;;8.50;2.97;;;;;;;;;;4995158;28;20025;-84
2022/01/22 04:34:54;;;;;;;7.15;2.65;;;;;;;;;;4995253;28;20442;-84
2022/01/22 04:37:21;;;;;;;7.93;3.03;;;;;;;;;;4980986;28;20064;-85
2022/01/22 04:39:48;;;;;;;7.78;3.35;;;;;;;;;;4997633;28;20046;-85
2022/01/22 04:42:15;;;;;;;8.30;3.70;;;;;;;;;;4995269;28;20079;-85
2022/01/22 04:44:52;;;;;;;8.13;2.97;;;;;;;;;;4994923;28;20026;-85
2022/01/22 04:47:30;;;;;;;8.43;3.10;;;;;;;;;;4997970;28;20037;-84
2022/01/22 04:54:58;;;;;;;5.97;2.67;;;;;;;;;;5010943;28;20049;-85
2022/01/22 04:55:29;;;;;;;4.28;2.08;;;;;;;;;;5015540;28;20041;-85
2022/01/22 04:57:56;;;;;;;7.00;3.08;;;;;;;;;;4999761;28;21044;-86
2022/01/22 05:00:22;;;;;;;6.65;2.95;;;;;;;;;;4997906;28;20037;-86
2022/01/22 05:02:48;;;;;;;8.77;3.20;;;;;;;;;;5005261;28;20029;-86
2022/01/22 05:05:14;;;;;;;6.85;3.13;;;;;;;;;;5008070;28;20405;-86
2022/01/22 05:07:40;;;;;;;6.65;3.28;;;;;;;;;;4978630;28;20023;-87
2022/01/22 05:10:08;;;;;;;8.73;3.00;;;;;;;;;;5018271;28;20505;-86
2022/01/22 05:12:34;;;;;;;7.72;3.15;;;;;;;;;;5009554;28;20029;-85
2022/01/22 05:15:00;;;;;;;6.20;2.47;;;;;;;;;;4997847;28;20091;-85
2022/01/22 05:17:26;;;;;;;10.10;3.28;;;;;;;;;;4997442;28;20034;-85
2022/01/22 05:20:03;;;;;;;7.70;2.90;;;;;;;;;;4996084;28;20064;-85
2022/01/22 05:25:09;;;;;;;8.88;3.13;;;;;;;;;;5015311;28;20042;-86
2022/01/22 05:30:35;;;;;;;7.93;3.53;;;;;;;;;;5013341;28;20033;-85
2022/01/22 05:33:14;;;;;;;12.13;4.15;;;;;;;;;;5013954;28;20044;-84
2022/01/22 05:38:29;;;;;;;6.35;2.88;;;;;;;;;;5008438;28;20049;-85
2022/01/22 05:40:55;;;;;;;3.65;1.60;;;;;;;;;;4994229;28;20060;-84
2022/01/22 05:43:21;;;;;;;7.47;3.35;;;;;;;;;;5011207;28;20061;-85
2022/01/22 05:45:47;;;;;;;8.63;3.13;;;;;;;;;;4995937;28;20029;-85
2022/01/22 05:48:13;;;;;;;7.90;3.55;;;;;;;;;;4997948;28;20030;-85
2022/01/22 06:01:18;;;;;;;5.80;2.63;;;;;;;;;;5014700;28;20104;-84
2022/01/22 06:03:44;;;;;;;8.65;3.13;;;;;;;;;;4991897;28;20034;-86
2022/01/22 06:06:11;;;;;;;9.05;2.80;;;;;;;;;;4990507;28;20034;-87
2022/01/22 06:08:51;;;;;;;7.38;3.10;;;;;;;;;;4993199;28;20029;-87
2022/01/22 06:11:26;;;;;;;9.30;3.97;;;;;;;;;;5004356;28;20386;-87
2022/01/22 06:13:52;;;;;;;7.85;3.15;;;;;;;;;;4988210;28;20033;-88
2022/01/22 06:16:22;;;;;;;7.78;3.30;;;;;;;;;;4991242;28;20478;-87
2022/01/22 06:18:49;;;;;;;6.70;3.50;;;;;;;;;;4989214;28;20061;-87
2022/01/22 06:21:15;;;;;;;6.95;3.22;;;;;;;;;;5003920;28;20124;-87
2022/01/22 06:23:45;;;;;;;9.70;3.83;;;;;;;;;;5006791;28;20114;-86
2022/01/22 06:26:11;;;;;;;10.98;4.35;;;;;;;;;;4991655;28;20182;-87
2022/01/22 06:28:37;;;;;;;8.68;3.33;;;;;;;;;;4992564;28;20200;-87
2022/01/22 06:31:04;;;;;;;8.93;3.70;;;;;;;;;;5006888;28;20029;-86
2022/01/22 06:33:30;;;;;;;7.03;2.92;;;;;;;;;;4990550;28;20133;-87
2022/01/22 06:35:56;;;;;;;6.95;2.88;;;;;;;;;;4985189;28;20037;-87
2022/01/22 06:38:22;;;;;;;9.60;2.75;;;;;;;;;;4988722;28;20042;-87
2022/01/22 06:43:32;;;;;;;5.35;2.92;;;;;;;;;;5005509;28;20099;-86
2022/01/22 06:46:00;;;;;;;8.88;3.83;;;;;;;;;;4979775;28;20129;-87
2022/01/22 06:48:26;;;;;;;5.72;3.08;;;;;;;;;;4987895;28;20034;-87
2022/01/22 06:50:53;;;;;;;7.78;3.55;;;;;;;;;;4990730;28;20038;-87
2022/01/22 06:53:19;;;;;;;7.22;3.38;;;;;;;;;;4994350;28;20034;-87
2022/01/22 06:55:56;;;;;;;9.15;3.35;;;;;;;;;;4991365;28;20038;-87
2022/01/22 06:58:22;;;;;;;8.25;3.25;;;;;;;;;;4994751;28;20018;-88
2022/01/22 07:00:48;;;;;;;7.90;3.50;;;;;;;;;;4992560;28;20042;-87
2022/01/22 07:03:14;;;;;;;6.32;2.75;;;;;;;;;;4990464;28;20056;-87
2022/01/22 07:05:40;;;;;;;7.10;3.00;;;;;;;;;;4989740;28;20057;-86
2022/01/22 07:08:06;;;;;;;8.43;3.15;;;;;;;;;;4996529;28;20025;-87
2022/01/22 07:10:32;;;;;;;8.45;3.42;;;;;;;;;;5005940;28;20018;-87
2022/01/22 07:12:58;;;;;;;8.20;3.40;;;;;;;;;;4985590;28;20034;-87
2022/01/22 07:15:24;;;;;;;8.25;3.10;;;;;;;;;;4994275;28;20042;-87
2022/01/22 07:17:50;;;;;;;4.40;2.15;;;;;;;;;;5015599;28;20616;-87
2022/01/22 07:20:24;;;;;;;7.85;3.05;;;;;;;;;;5016297;28;20124;-86
2022/01/22 07:23:01;;;;;;;3.95;1.60;;;;;;;;;;4997131;28;20022;-86
2022/01/22 07:25:27;;;;;;;13.48;4.15;;;;;;;;;;4993353;28;20022;-86
2022/01/22 07:27:54;;;;;;;10.82;4.13;;;;;;;;;;4998877;28;20034;-86
2022/01/22 07:30:20;;;;;;;8.88;4.10;;;;;;;;;;5014803;28;20030;-87
2022/01/22 07:32:46;;;;;;;7.68;3.80;;;;;;;;;;4997283;28;20117;-86
2022/01/22 07:35:13;;;;;;;8.52;4.10;;;;;;;;;;4999413;28;20089;-86
2022/01/22 07:37:39;;;;;;;10.38;4.40;;;;;;;;;;4995672;28;20290;-86
2022/01/22 07:40:06;;;;;;;10.32;4.30;;;;;;;;;;4998500;28;20474;-86
2022/01/22 07:42:32;;;;;;;11.23;4.10;;;;;;;;;;4996287;28;20086;-84
2022/01/22 07:44:58;;;;;;;10.77;4.43;;;;;;;;;;5014502;28;20390;-86
2022/01/22 07:47:24;;;;;;;8.05;3.53;;;;;;;;;;4996330;28;20022;-87
2022/01/22 07:49:50;;;;;;;7.72;3.53;;;;;;;;;;4998343;28;20033;-87
2022/01/22 07:52:16;;;;;;;10.75;3.70;;;;;;;;;;4997331;28;20053;-86
2022/01/22 07:54:42;;;;;;;4.80;2.85;;;;;;;;;;4995772;28;20053;-86
2022/01/22 07:57:08;;;;;;;9.38;3.80;;;;;;;;;;4996249;28;20030;-85
2022/01/22 07:59:34;;;;;;;9.77;4.05;;;;;;;;;;4996209;28;20028;-85
2022/01/22 08:02:05;;;;;;;7.43;3.85;;;;;;;;;;5014936;28;20042;-86
2022/01/22 08:04:31;;;;;;;8.48;4.05;;;;;;;;;;4995201;28;20026;-86
2022/01/22 08:06:58;;;;;;;9.32;3.83;;;;;;;;;;5014247;28;20034;-83
2022/01/22 08:09:24;;;;;;;3.58;2.00;;;;;;;;;;5014537;28;20092;-84
2022/01/22 08:11:51;;;;;;;11.30;4.68;;;;;;;;;;4995293;28;20026;-83
2022/01/22 08:14:17;;;;;;;8.98;4.32;;;;;;;;;;5014829;28;20022;-84
2022/01/22 08:16:48;;;;;;;14.13;6.15;;;;;;;;;;4993556;28;20018;-82
2022/01/22 08:19:15;;;;;;;10.57;5.55;;;;;;;;;;5010162;28;20110;-83
2022/01/22 08:21:41;;;;;;;12.77;5.50;;;;;;;;;;4995081;28;20050;-83
2022/01/22 08:24:08;;;;;;;11.18;5.60;;;;;;;;;;5014000;28;20034;-85
2022/01/22 08:26:38;;;;;;;10.43;5.15;;;;;;;;;;4996133;28;20069;-85
2022/01/22 08:29:04;;;;;;;10.40;4.78;;;;;;;;;;4996394;28;20037;-86
2022/01/22 08:36:43;;;;;;;9.55;4.55;;;;;;;;;;5014837;28;20096;-85
2022/01/22 08:39:09;;;;;;;11.48;5.15;;;;;;;;;;4992722;28;20082;-85
2022/01/22 08:41:35;;;;;;;8.52;4.45;;;;;;;;;;4995089;28;20061;-85
2022/01/22 08:44:02;;;;;;;12.00;5.43;;;;;;;;;;4993552;28;20030;-84
2022/01/22 08:46:28;;;;;;;10.45;5.10;;;;;;;;;;4977515;28;20066;-84
2022/01/22 08:48:54;;;;;;;11.10;5.60;;;;;;;;;;4993104;28;20022;-85
2022/01/22 08:51:21;;;;;;;10.68;5.53;;;;;;;;;;4991908;28;20084;-85
2022/01/22 08:53:47;;;;;;;14.23;4.97;;;;;;;;;;4991801;28;20493;-84
2022/01/22 08:56:13;;;;;;;10.68;5.30;;;;;;;;;;4992577;28;20026;-84
2022/01/22 08:58:39;;;;;;;8.98;4.53;;;;;;;;;;4992476;28;20109;-83
2022/01/22 09:01:06;;;;;;;11.48;4.93;;;;;;;;;;4987788;28;20038;-83
2022/01/22 09:03:32;;;;;;;10.00;6.07;;;;;;;;;;5000055;28;20041;-83
2022/01/22 09:05:58;;;;;;;6.13;3.33;;;;;;;;;;4994000;28;20053;-83
2022/01/22 09:08:25;;;;;;;12.13;6.15;;;;;;;;;;4992607;28;20034;-83
2022/01/22 09:10:52;;;;;;;11.35;5.32;;;;;;;;;;4988732;28;20038;-83
2022/01/22 09:13:18;;;;;;;8.27;4.22;;;;;;;;;;4990124;28;20033;-84
2022/01/22 09:15:44;;;;;;;9.10;4.47;;;;;;;;;;4988895;28;20030;-84
2022/01/22 09:18:10;;;;;;;10.35;5.20;;;;;;;;;;4987928;28;20641;-84
2022/01/22 09:23:03;;;;;;;11.38;5.57;;;;;;;;;;4985668;28;20030;-84
2022/01/22 09:25:29;;;;;;;9.93;4.78;;;;;;;;;;4990788;28;20030;-84
2022/01/22 09:27:55;;;;;;;10.88;5.93;;;;;;;;;;4988026;28;20089;-85
2022/01/22 09:30:20;;;;;;;12.68;6.60;;;;;;;;;;4985048;28;20038;-84
2022/01/22 09:32:47;;;;;;;10.38;5.10;;;;;;;;;;4988954;28;20030;-84
2022/01/22 09:35:13;;;;;;;10.35;5.78;;;;;;;;;;4984693;28;20038;-84
2022/01/22 09:37:39;;;;;;;13.20;6.20;;;;;;;;;;4987268;28;20026;-82
2022/01/22 09:40:05;;;;;;;16.52;6.95;;;;;;;;;;5008968;28;20049;-84
2022/01/22 09:42:31;;;;;;;9.10;4.70;;;;;;;;;;4999437;28;20022;-84
2022/01/22 09:44:57;;;;;;;12.55;6.20;;;;;;;;;;4981292;28;20038;-85
2022/01/22 09:47:23;;;;;;;13.27;6.32;;;;;;;;;;4980015;28;20030;-85
2022/01/22 09:49:49;;;;;;;12.55;6.65;;;;;;;;;;4982390;28;20026;-85
2022/01/22 09:52:15;;;;;;;10.70;5.00;;;;;;;;;;4980862;28;20041;-85
2022/01/22 09:54:41;;;;;;;7.53;3.42;;;;;;;;;;4996691;28;20034;-84
2022/01/22 09:57:09;;;;;;;6.32;3.67;;;;;;;;;;4998314;28;20540;-84
2022/01/22 09:59:35;;;;;;;7.40;3.35;;;;;;;;;;5000857;28;20116;-82
2022/01/22 10:02:07;;;;;;;14.70;5.90;;;;;;;;;;4983990;28;20049;-85
2022/01/22 10:04:37;;;;;;;13.35;5.55;;;;;;;;;;4976637;28;20026;-84
2022/01/22 10:07:03;;;;;;;9.90;5.15;;;;;;;;;;5000530;28;20478;-84
2022/01/22 10:09:46;;;;;;;11.65;5.32;;;;;;;;;;4981821;28;20029;-84
2022/01/22 10:12:12;;;;;;;11.20;5.03;;;;;;;;;;4983690;28;20629;-84
2022/01/22 10:14:58;;;;;;;10.35;4.72;;;;;;;;;;4985447;28;20026;-85
2022/01/22 10:17:42;;;;;;;9.88;4.40;;;;;;;;;;4986964;28;20025;-85
2022/01/22 10:20:28;;;;;;;11.13;4.82;;;;;;;;;;4986989;28;20042;-85
2022/01/22 10:22:57;;;;;;;10.82;4.93;;;;;;;;;;5004373;28;20505;-86
2022/01/22 10:25:26;;;;;;;7.97;4.15;;;;;;;;;;4983241;28;20161;-86
2022/01/22 10:27:57;;;;;;;14.05;6.47;;;;;;;;;;4979012;28;20042;-85
2022/01/22 10:30:29;;;;;;;8.90;5.28;;;;;;;;;;5005420;28;20165;-86
2022/01/22 10:33:05;;;;;;;10.98;5.32;;;;;;;;;;4992293;28;20575;-86
2022/01/22 10:35:32;;;;;;;8.57;3.95;;;;;;;;;;4991763;28;20033;-86
2022/01/22 10:37:59;;;;;;;11.10;4.38;;;;;;;;;;4991859;28;20144;-86
2022/01/22 10:40:28;;;;;;;9.90;4.80;;;;;;;;;;4992523;28;20084;-84
2022/01/22 10:43:11;;;;;;;9.68;4.63;;;;;;;;;;4992334;28;20014;-85
2022/01/22 10:45:40;;;;;;;9.55;5.22;;;;;;;;;;4981237;28;20084;-85
2022/01/22 10:48:14;;;;;;;11.63;5.15;;;;;;;;;;4983398;28;20060;-84
2022/01/22 10:50:40;;;;;;;9.00;4.28;;;;;;;;;;4990954;28;20037;-85
2022/01/22 10:53:06;;;;;;;9.75;3.95;;;;;;;;;;4992354;28;20026;-87
2022/01/22 10:55:32;;;;;;;8.13;3.40;;;;;;;;;;5011047;28;20115;-84
2022/01/22 10:58:08;;;;;;;7.55;3.45;;;;;;;;;;5007714;28;20090;-84
2022/01/22 11:00:35;;;;;;;9.30;4.63;;;;;;;;;;4992076;28;20115;-87
2022/01/22 11:03:23;;;;;;;9.25;4.63;;;;;;;;;;4994166;28;20026;-94
2022/01/22 11:05:49;;;;;;;9.82;3.63;;;;;;;;;;4992247;28;20026;-88
2022/01/22 11:08:16;;;;;;;7.90;3.90;;;;;;;;;;4993550;28;20054;-87
2022/01/22 11:10:43;;;;;;;7.88;4.20;;;;;;;;;;5012518;28;20076;-88
2022/01/22 11:13:09;;;;;;;11.27;4.27;;;;;;;;;;4980994;28;20019;-86
2022/01/22 11:15:35;;;;;;;9.07;4.00;;;;;;;;;;4992126;28;20286;-88
2022/01/22 11:18:02;;;;;;;11.93;4.35;;;;;;;;;;4992277;28;20463;-87
2022/01/22 11:20:30;;;;;;;8.55;3.78;;;;;;;;;;5008796;28;20034;-86
2022/01/22 11:22:58;;;;;;;7.95;3.30;;;;;;;;;;4994316;28;20029;-86
2022/01/22 11:25:25;;;;;;;8.00;3.87;;;;;;;;;;5012699;28;20030;-86
2022/01/22 11:27:51;;;;;;;7.68;3.83;;;;;;;;;;4991967;28;20363;-86
2022/01/22 11:30:18;;;;;;;10.20;3.55;;;;;;;;;;5007418;28;20034;-86
2022/01/22 11:32:44;;;;;;;6.57;3.08;;;;;;;;;;4990913;28;20045;-86
2022/01/22 11:35:10;;;;;;;7.38;2.97;;;;;;;;;;4991400;28;20526;-86
2022/01/22 11:37:39;;;;;;;7.57;3.42;;;;;;;;;;4976953;28;20129;-86
2022/01/22 11:40:14;;;;;;;9.77;3.95;;;;;;;;;;4995028;28;20555;-86
2022/01/22 11:43:04;;;;;;;9.73;3.38;;;;;;;;;;4992146;28;20036;-86
2022/01/22 11:45:33;;;;;;;7.43;3.42;;;;;;;;;;4998387;28;20079;-85
2022/01/22 11:48:09;;;;;;;5.72;2.72;;;;;;;;;;4997731;28;20094;-86
2022/01/22 11:50:35;;;;;;;6.72;3.40;;;;;;;;;;4997378;28;20391;-86
2022/01/22 11:53:20;;;;;;;7.53;3.20;;;;;;;;;;4997473;28;20022;-86
2022/01/22 11:56:05;;;;;;;5.60;2.60;;;;;;;;;;5012798;28;20485;-86
2022/01/22 11:58:31;;;;;;;6.15;2.92;;;;;;;;;;4978741;28;20030;-86
2022/01/22 12:00:57;;;;;;;7.13;3.00;;;;;;;;;;4991365;28;20542;-87
2022/01/22 12:03:23;;;;;;;10.77;3.10;;;;;;;;;;4989580;28;20041;-87
2022/01/22 12:05:56;;;;;;;6.43;3.08;;;;;;;;;;4990922;28;20101;-85
2022/01/22 12:08:22;;;;;;;6.50;2.85;;;;;;;;;;5016171;28;20352;-87
2022/01/22 12:16:16;;;;;;;7.70;2.63;;;;;;;;;;5002402;28;20093;-87
2022/01/22 12:18:50;;;;;;;6.72;3.03;;;;;;;;;;4986717;28;20114;-88
2022/01/22 12:23:56;;;;;;;7.05;3.28;;;;;;;;;;5006015;28;20124;-87
2022/01/22 12:26:39;;;;;;;6.60;3.00;;;;;;;;;;4989520;28;20022;-87
2022/01/22 12:29:37;;;;;;;9.88;3.75;;;;;;;;;;4977077;28;20030;-87
2022/01/22 12:32:07;;;;;;;7.70;3.75;;;;;;;;;;4950724;28;20510;-86
2022/01/22 12:34:51;;;;;;;8.15;3.42;;;;;;;;;;4984630;28;20026;-87
2022/01/22 12:37:19;;;;;;;8.25;3.47;;;;;;;;;;4985377;28;20026;-87
2022/01/22 12:39:49;;;;;;;7.13;3.40;;;;;;;;;;4984639;28;20133;-87
2022/01/22 12:42:29;;;;;;;7.90;3.42;;;;;;;;;;4991342;28;20034;-87
2022/01/22 12:44:59;;;;;;;9.70;3.80;;;;;;;;;;5004431;28;20032;-87
2022/01/22 12:47:26;;;;;;;12.23;3.72;;;;;;;;;;5003083;28;20041;-88
2022/01/22 12:49:59;;;;;;;8.00;3.50;;;;;;;;;;5007310;28;20057;-87
2022/01/22 12:52:27;;;;;;;5.00;2.72;;;;;;;;;;4993603;28;20034;-87
2022/01/22 12:54:57;;;;;;;6.72;3.10;;;;;;;;;;4991870;28;20045;-87
2022/01/22 12:57:25;;;;;;;7.25;3.53;;;;;;;;;;4988409;28;20038;-87
2022/01/22 13:00:14;;;;;;;6.72;3.42;;;;;;;;;;4990647;28;20029;-87
2022/01/22 13:02:42;;;;;;;9.82;3.78;;;;;;;;;;4992934;28;20282;-88
2022/01/22 13:05:08;;;;;;;9.32;3.00;;;;;;;;;;4990027;28;20364;-87
2022/01/22 13:07:53;;;;;;;6.60;2.78;;;;;;;;;;5006565;28;20130;-87
2022/01/22 13:10:22;;;;;;;6.53;2.83;;;;;;;;;;4992064;28;20029;-88
2022/01/22 13:12:48;;;;;;;9.02;3.15;;;;;;;;;;5000250;28;20113;-87
2022/01/22 13:15:18;;;;;;;6.40;2.97;;;;;;;;;;5001669;28;20042;-88
2022/01/22 13:17:52;;;;;;;6.75;3.00;;;;;;;;;;4988577;28;20030;-88
2022/01/22 13:20:25;;;;;;;6.88;2.83;;;;;;;;;;5005563;28;20062;-85
2022/01/22 13:22:51;;;;;;;6.50;2.88;;;;;;;;;;5002057;28;20402;-86
2022/01/22 13:25:18;;;;;;;4.88;2.70;;;;;;;;;;4985654;28;20469;-86
2022/01/22 13:27:58;;;;;;;6.43;2.92;;;;;;;;;;5005519;28;20797;-85
2022/01/22 13:30:33;;;;;;;5.55;2.22;;;;;;;;;;4988800;28;20023;-86
2022/01/22 13:33:04;;;;;;;4.70;2.33;;;;;;;;;;4989994;28;20062;-88
2022/01/22 13:35:54;;;;;;;5.63;2.72;;;;;;;;;;5003843;28;20030;-87
2022/01/22 13:48:58;;;;;;;6.20;2.45;;;;;;;;;;5004028;28;20561;-87
2022/01/22 13:51:25;;;;;;;5.78;3.00;;;;;;;;;;4991669;28;20218;-87
2022/01/22 13:53:51;;;;;;;6.28;2.97;;;;;;;;;;4991301;28;20033;-87
2022/01/22 13:56:18;;;;;;;6.10;2.97;;;;;;;;;;4992223;28;20074;-87
2022/01/22 13:58:44;;;;;;;6.90;2.78;;;;;;;;;;4990583;28;20026;-89
2022/01/22 14:01:28;;;;;;;5.38;2.20;;;;;;;;;;4989378;28;20085;-87
2022/01/22 14:04:07;;;;;;;6.45;2.67;;;;;;;;;;4984369;28;20028;-87
2022/01/22 14:06:33;;;;;;;7.03;2.38;;;;;;;;;;4986111;28;20034;-87
2022/01/22 14:09:11;;;;;;;5.07;2.50;;;;;;;;;;4983553;28;20029;-86
2022/01/22 14:11:37;;;;;;;5.40;2.63;;;;;;;;;;4988671;28;20037;-88
2022/01/22 14:14:04;;;;;;;6.43;2.40;;;;;;;;;;4983820;28;20130;-88
2022/01/22 14:16:32;;;;;;;7.50;3.03;;;;;;;;;;4984290;28;20072;-88
2022/01/22 14:18:59;;;;;;;5.43;2.63;;;;;;;;;;4991466;28;20032;-87
2022/01/22 14:21:25;;;;;;;5.57;2.35;;;;;;;;;;4989814;28;20427;-89
2022/01/22 14:23:52;;;;;;;5.45;2.20;;;;;;;;;;4992524;28;20022;-88
2022/01/22 14:26:28;;;;;;;4.20;2.20;;;;;;;;;;4991764;28;20026;-87
2022/01/22 14:29:01;;;;;;;6.32;2.17;;;;;;;;;;4993470;28;20378;-87
2022/01/22 14:31:43;;;;;;;8.35;4.40;;;;;;;;;;4990341;28;20498;-88
2022/01/22 14:34:13;;;;;;;6.75;2.90;;;;;;;;;;5007855;28;20053;-87
2022/01/22 14:36:40;;;;;;;4.88;2.30;;;;;;;;;;4988000;28;20026;-87
2022/01/22 14:39:14;;;;;;;4.70;2.30;;;;;;;;;;4998049;28;20050;-88
2022/01/22 14:45:06;;;;;;;11.35;5.15;;;;;;;;;;4939085;28;20032;-88
2022/01/22 14:47:32;;;;;;;4.85;2.55;;;;;;;;;;4985331;28;20474;-88
2022/01/22 14:50:04;;;;;;;3.72;1.50;;;;;;;;;;4986415;28;20655;-87
2022/01/22 14:52:30;;;;;;;3.53;1.77;;;;;;;;;;4997284;28;20029;-86
2022/01/22 14:54:58;;;;;;;3.92;1.90;;;;;;;;;;4995994;28;20085;-86
2022/01/22 14:57:28;;;;;;;4.70;2.47;;;;;;;;;;4978085;28;20019;-87
2022/01/22 14:59:54;;;;;;;3.50;1.70;;;;;;;;;;4982562;28;20042;-86
2022/01/22 15:02:20;;;;;;;3.00;1.42;;;;;;;;;;4981475;28;20488;-87
2022/01/22 15:04:46;;;;;;;6.53;1.75;;;;;;;;;;4980492;28;20430;-87
2022/01/22 15:07:14;;;;;;;8.60;3.80;;;;;;;;;;4992161;28;20091;-88
2022/01/22 15:09:40;;;;;;;;;;;;;;;;;;4989813;28;20117;-87
2022/01/22 15:12:08;;;;;;;4.75;2.30;;;;;;;;;;5001648;28;20310;-87
2022/01/22 15:14:34;;;;;;;7.90;2.78;;;;;;;;;;4998094;28;20072;-87
2022/01/22 15:19:33;;;;;;;7.07;2.85;;;;;;;;;;5004642;28;20030;-88
2022/01/22 15:21:59;;;;;;;7.38;3.00;;;;;;;;;;4979734;28;20061;-88
2022/01/22 15:24:26;;;;;;;5.43;2.80;;;;;;;;;;4985043;28;20517;-87
2022/01/22 15:26:52;;;;;;;7.22;3.15;;;;;;;;;;4988968;28;20087;-86
2022/01/22 15:29:24;;;;;;;5.90;2.60;;;;;;;;;;4987558;28;20022;-87
2022/01/22 15:32:03;;;;;;;7.22;2.80;;;;;;;;;;4988026;28;20113;-87
2022/01/22 15:36:59;;;;;;;9.05;4.00;;;;;;;;;;5008857;28;20499;-88
2022/01/22 15:39:25;;;;;;;7.65;3.42;;;;;;;;;;4995678;28;20274;-87
2022/01/22 15:41:51;;;;;;;6.30;2.70;;;;;;;;;;4993473;28;20034;-87
2022/01/22 15:44:18;;;;;;;8.18;4.00;;;;;;;;;;4995551;28;20037;-87
2022/01/22 15:46:45;;;;;;;12.55;3.58;;;;;;;;;;4996239;28;20026;-87
2022/01/22 15:49:15;;;;;;;6.95;2.90;;;;;;;;;;4998414;28;20049;-87
2022/01/22 15:51:51;;;;;;;6.35;2.85;;;;;;;;;;4996377;28;20105;-87
2022/01/22 15:54:18;;;;;;;13.88;8.07;;;;;;;;;;4997744;28;20037;-87
2022/01/22 15:56:45;;;;;;;5.80;2.65;;;;;;;;;;4993162;28;20025;-85
2022/01/22 15:59:11;;;;;;;5.50;2.78;;;;;;;;;;4990551;28;20052;-87
2022/01/22 16:01:39;;;;;;;5.93;2.30;;;;;;;;;;4986754;28;20038;-86
2022/01/22 16:04:06;;;;;;;4.20;2.08;;;;;;;;;;5002404;28;20092;-87
2022/01/22 16:06:46;;;;;;;3.92;1.70;;;;;;;;;;4992917;28;20036;-87
2022/01/22 16:09:13;;;;;;;5.13;2.28;;;;;;;;;;4990932;28;20030;-87
2022/01/22 16:11:39;;;;;;;5.50;2.13;;;;;;;;;;5010786;28;20056;-87
2022/01/22 16:14:06;;;;;;;4.65;1.98;;;;;;;;;;4997477;28;23257;-86
2022/01/22 16:16:33;;;;;;;5.15;2.60;;;;;;;;;;5003409;28;20032;-86
2022/01/22 16:18:59;;;;;;;7.82;3.35;;;;;;;;;;4994293;28;20053;-86
2022/01/22 16:21:25;;;;;;;5.18;2.60;;;;;;;;;;4999327;28;20081;-85
2022/01/22 16:23:51;;;;;;;7.70;3.03;;;;;;;;;;5001234;28;20434;-87
2022/01/22 16:26:17;;;;;;;12.30;5.10;;;;;;;;;;5004608;28;20115;-86
2022/01/22 16:28:43;;;;;;;8.55;3.67;;;;;;;;;;4990163;28;20632;-86
2022/01/22 16:31:10;;;;;;;8.63;3.95;;;;;;;;;;4987404;28;20091;-87
2022/01/22 16:33:36;;;;;;;5.70;2.58;;;;;;;;;;4982344;28;20058;-86
2022/01/22 16:36:02;;;;;;;6.15;2.90;;;;;;;;;;4986645;28;20136;-87
2022/01/22 16:38:28;;;;;;;7.30;4.00;;;;;;;;;;5005609;28;20049;-87
2022/01/22 16:40:55;;;;;;;6.50;3.13;;;;;;;;;;4987153;28;20056;-87